Deo Volente — PHFJ — position and weather

sailwx.info

Track history (hours):
 
Tides and Currents Weather Stations Pressure Air Temp Water Temp Dewpoint Dewpoint Depression Visibility Wind Speed Wind Dir Waves Ship Positions

Deo Volente

Last reported at 2014-Jul-23 12:11 UTC. Time now 2014-Jul-23 16:00 UTC.
Position N 39°32' W 000°08'.

Length 105 m; draft 4.8 m.

Type: Cargo ship. MMSI: 246518000.

Date/timePositionNaut miles runAvg speedWind from/ knotsBaromVisibWave heightAir tempDewpointWater temp
2014-Jul-23 12:11N 39°32' W 000°08'2815.0
2014-Jul-23 10:19N 39°08' E 000°10'1114.5
2014-Jul-23 09:32N 38°58' E 000°17'1515.0
2014-Jul-23 08:32N 38°45' E 000°26'1212.0
2014-Jul-23 07:33N 38°34' E 000°21'1414.2
2014-Jul-23 06:33N 38°22' E 000°11'1615.2
2014-Jul-23 05:29N 38°09' W 000°01'1415.0
2014-Jul-23 04:31N 37°57' W 000°11'1614.9
2014-Jul-23 03:28N 37°44' W 000°22'1314.5
2014-Jul-23 02:33N 37°33' W 000°32'1514.6
2014-Jul-23 01:33N 37°23' W 000°46'1414.4
2014-Jul-23 00:33N 37°14' W 000°59'1515.1
2014-Jul-22 23:33N 37°03' W 001°13'1313.5
2014-Jul-22 22:33N 36°54' W 001°25'3414.9
2014-Jul-22 20:16N 36°32' W 001°58'16914.4
2014-Jul-22 08:32N 35°58' W 005°23'  
Track history (hours):
 
Tides and Currents Weather Stations Pressure Air Temp Water Temp Dewpoint Dewpoint Depression Visibility Wind Speed Wind Dir Waves Ship Positions

Deo Volente

Last reported at 2014-Jul-23 12:11 UTC. Time now 2014-Jul-23 16:00 UTC.
Position N 39°32' W 000°08'.

Length 105 m; draft 4.8 m.

Type: Cargo ship. MMSI: 246518000.

Date/timePositionNaut miles runAvg speedWind from/ knotsBaromVisibWave heightAir tempDewpointWater temp
2014-Jul-23 12:11N 39°32' W 000°08'2815.0
2014-Jul-23 10:19N 39°08' E 000°10'1114.5
2014-Jul-23 09:32N 38°58' E 000°17'1515.0
2014-Jul-23 08:32N 38°45' E 000°26'1212.0
2014-Jul-23 07:33N 38°34' E 000°21'1414.2
2014-Jul-23 06:33N 38°22' E 000°11'1615.2
2014-Jul-23 05:29N 38°09' W 000°01'1415.0
2014-Jul-23 04:31N 37°57' W 000°11'1614.9
2014-Jul-23 03:28N 37°44' W 000°22'1314.5
2014-Jul-23 02:33N 37°33' W 000°32'1514.6
2014-Jul-23 01:33N 37°23' W 000°46'1414.4
2014-Jul-23 00:33N 37°14' W 000°59'1515.1
2014-Jul-22 23:33N 37°03' W 001°13'1313.5
2014-Jul-22 22:33N 36°54' W 001°25'3414.9
2014-Jul-22 20:16N 36°32' W 001°58'16914.4
2014-Jul-22 08:32N 35°58' W 005°23'  

Dump ship's entire track history